createdAt,value
2022-11-09T00:00:51.093Z,29.30
2022-11-09T00:03:18.631Z,30.13
2022-11-09T00:05:57.247Z,29.63
2022-11-09T00:08:25.120Z,30.07
2022-11-09T00:10:52.926Z,29.83
2022-11-09T00:13:20.387Z,30.20
2022-11-09T00:15:47.803Z,28.90
2022-11-09T00:18:14.998Z,29.13
2022-11-09T00:20:47.747Z,29.37
2022-11-09T00:23:19.244Z,28.90
2022-11-09T00:25:47.708Z,29.57
2022-11-09T00:28:15.312Z,28.20
2022-11-09T00:30:43.152Z,29.67
2022-11-09T00:33:12.391Z,28.97
2022-11-09T00:35:43.754Z,28.00
2022-11-09T00:38:10.994Z,28.57
2022-11-09T00:40:38.949Z,27.97
2022-11-09T00:43:06.219Z,27.80
2022-11-09T00:45:33.319Z,29.67
2022-11-09T00:48:00.497Z,29.70
2022-11-09T00:50:27.664Z,31.07
2022-11-09T00:52:55.287Z,31.30
2022-11-09T00:55:24.083Z,33.10
2022-11-09T00:57:53.404Z,32.53
2022-11-09T01:00:24.494Z,31.30
2022-11-09T01:02:54.040Z,33.90
2022-11-09T01:05:21.384Z,34.03
2022-11-09T01:07:50.669Z,34.27
2022-11-09T01:10:17.938Z,36.53
2022-11-09T01:12:47.946Z,35.60
2022-11-09T01:15:15.688Z,35.57
2022-11-09T01:17:42.914Z,36.07
2022-11-09T01:20:11.257Z,36.63
2022-11-09T01:22:38.435Z,36.80
2022-11-09T01:25:06.336Z,36.67
2022-11-09T01:27:34.022Z,35.63
2022-11-09T01:30:01.298Z,37.13
2022-11-09T01:32:32.523Z,35.77
2022-11-09T01:34:59.743Z,35.23
2022-11-09T01:37:26.903Z,33.83
2022-11-09T01:39:54.041Z,35.00
2022-11-09T01:42:25.723Z,35.47
2022-11-09T01:45:17.844Z,35.87
2022-11-09T01:48:25.658Z,35.20
2022-11-09T01:50:58.910Z,33.83
2022-11-09T01:53:32.922Z,33.30
2022-11-09T01:56:05.249Z,33.43
2022-11-09T01:58:42.500Z,33.50
2022-11-09T02:01:11.429Z,32.60
2022-11-09T02:03:47.085Z,33.63
2022-11-09T02:06:18.345Z,34.03
2022-11-09T02:08:46.847Z,34.23
2022-11-09T02:11:18.230Z,32.27
2022-11-09T02:13:51.644Z,34.67
2022-11-09T02:16:20.611Z,34.97
2022-11-09T02:19:01.163Z,34.97
2022-11-09T02:21:31.985Z,35.13
2022-11-09T02:24:00.323Z,38.00
2022-11-09T02:26:41.109Z,36.37
2022-11-09T02:29:11.146Z,35.97
2022-11-09T02:31:46.671Z,36.27
2022-11-09T02:34:20.891Z,36.87
2022-11-09T02:36:49.074Z,34.90
2022-11-09T02:39:24.176Z,35.30
2022-11-09T02:41:59.849Z,37.33
2022-11-09T02:44:39.798Z,36.43
2022-11-09T02:47:08.318Z,35.07
2022-11-09T02:49:35.674Z,37.23
2022-11-09T02:52:02.994Z,36.70
2022-11-09T02:54:30.332Z,36.83
2022-11-09T02:56:58.916Z,36.07
2022-11-09T02:59:27.539Z,36.43
2022-11-09T03:01:54.854Z,35.50
2022-11-09T03:04:22.599Z,36.43
2022-11-09T03:06:50.404Z,36.20
2022-11-09T03:09:19.564Z,36.03
2022-11-09T03:11:46.772Z,35.97
2022-11-09T03:14:16.288Z,36.27
2022-11-09T03:16:54.206Z,35.73
2022-11-09T03:19:21.803Z,34.97
2022-11-09T03:21:51.798Z,35.77
2022-11-09T03:24:23.185Z,35.73
2022-11-09T03:26:52.990Z,34.80
2022-11-09T03:29:20.719Z,36.40
2022-11-09T03:31:47.841Z,37.10
2022-11-09T03:34:15.282Z,35.83
2022-11-09T03:36:42.481Z,38.40
2022-11-09T03:39:09.628Z,35.67
2022-11-09T03:41:37.506Z,34.30
2022-11-09T03:44:04.839Z,37.00
2022-11-09T03:46:32.124Z,35.83
2022-11-09T03:48:59.443Z,35.53
2022-11-09T03:51:26.679Z,37.27
2022-11-09T03:53:53.908Z,37.13
2022-11-09T03:56:21.063Z,36.20
2022-11-09T03:58:48.258Z,36.53
2022-11-09T04:01:15.728Z,34.97
2022-11-09T04:03:43.027Z,36.90
2022-11-09T04:06:10.106Z,37.37
2022-11-09T04:08:37.315Z,38.17
2022-11-09T04:11:04.388Z,36.57
2022-11-09T04:13:31.641Z,37.53
2022-11-09T04:15:59.480Z,38.17
2022-11-09T04:18:26.686Z,37.43
2022-11-09T04:20:53.851Z,35.50
2022-11-09T04:23:21.593Z,37.03
2022-11-09T04:25:49.092Z,36.93
2022-11-09T04:28:19.787Z,39.00
2022-11-09T04:30:46.912Z,37.57
2022-11-09T04:33:14.363Z,41.43
2022-11-09T04:35:41.602Z,40.97
2022-11-09T04:38:12.045Z,40.47
2022-11-09T04:40:39.799Z,44.67
2022-11-09T04:43:11.633Z,51.37
2022-11-09T04:45:38.908Z,56.27
2022-11-09T04:48:07.650Z,48.30
2022-11-09T04:50:35.387Z,48.23
2022-11-09T04:53:13.896Z,44.43
2022-11-09T04:55:42.186Z,42.30
2022-11-09T04:58:10.044Z,41.63
2022-11-09T05:00:38.329Z,42.27
2022-11-09T05:03:06.958Z,40.80
2022-11-09T05:05:35.590Z,39.77
2022-11-09T05:08:02.999Z,40.60
2022-11-09T05:10:30.663Z,42.27
2022-11-09T05:13:03.106Z,43.77
2022-11-09T05:15:31.116Z,40.47
2022-11-09T05:17:58.549Z,42.23
2022-11-09T05:20:25.838Z,41.93
2022-11-09T05:23:11.599Z,42.20
2022-11-09T05:25:38.826Z,40.83
2022-11-09T05:28:06.246Z,40.03
2022-11-09T05:30:33.420Z,40.47
2022-11-09T05:33:00.669Z,41.67
2022-11-09T05:35:27.846Z,44.63
2022-11-09T05:37:55.004Z,42.37
2022-11-09T05:40:22.449Z,40.80
2022-11-09T05:42:49.607Z,45.00
2022-11-09T05:45:41.333Z,45.50
2022-11-09T05:48:07.352Z,45.33
2022-11-09T05:50:34.865Z,43.87
2022-11-09T05:53:20.720Z,42.77
2022-11-09T05:55:48.143Z,42.87
2022-11-09T05:58:15.389Z,46.27
2022-11-09T06:00:42.690Z,45.27
2022-11-09T06:03:11.503Z,44.77
2022-11-09T06:05:41.251Z,46.47
2022-11-09T06:08:11.474Z,43.67
2022-11-09T06:10:38.842Z,45.33
2022-11-09T06:13:06.567Z,46.30
2022-11-09T06:15:33.898Z,46.07
2022-11-09T06:18:00.995Z,44.53
2022-11-09T06:20:28.910Z,44.50
2022-11-09T06:23:03.053Z,45.10
2022-11-09T06:25:33.577Z,45.67
2022-11-09T06:28:01.801Z,45.30
2022-11-09T06:30:29.531Z,45.63
2022-11-09T06:33:00.867Z,46.73
2022-11-09T06:35:28.977Z,42.97
2022-11-09T06:37:57.975Z,44.97
2022-11-09T06:40:25.702Z,44.43
2022-11-09T06:42:52.963Z,42.47
2022-11-09T06:45:20.131Z,42.57
2022-11-09T06:47:47.386Z,42.63
2022-11-09T06:50:14.998Z,43.30
2022-11-09T06:52:42.064Z,42.53
2022-11-09T06:55:09.809Z,42.63
2022-11-09T06:57:37.635Z,41.10
2022-11-09T07:00:06.217Z,39.93
2022-11-09T07:02:34.253Z,39.93
2022-11-09T07:05:01.532Z,38.17
2022-11-09T07:07:28.795Z,36.47
2022-11-09T07:09:56.029Z,36.97
2022-11-09T07:12:23.630Z,36.03
2022-11-09T07:14:50.818Z,36.37
2022-11-09T07:17:18.097Z,35.77
2022-11-09T07:20:03.119Z,36.20
2022-11-09T07:22:30.429Z,38.70
2022-11-09T07:24:57.657Z,37.93
2022-11-09T07:27:27.979Z,36.77
2022-11-09T07:29:55.725Z,34.80
2022-11-09T07:32:31.054Z,36.37
2022-11-09T07:35:09.910Z,35.20
2022-11-09T07:37:37.373Z,36.07
2022-11-09T07:40:04.938Z,36.10
2022-11-09T07:42:32.056Z,36.83
2022-11-09T07:44:59.225Z,38.50
2022-11-09T07:47:26.334Z,37.00
2022-11-09T07:49:53.533Z,36.10
2022-11-09T07:52:20.752Z,35.93
2022-11-09T07:54:51.952Z,36.60
2022-11-09T07:57:19.522Z,36.77
2022-11-09T07:59:46.690Z,37.13
2022-11-09T08:02:14.684Z,34.63
2022-11-09T08:04:41.980Z,38.70
2022-11-09T08:07:09.162Z,36.17
2022-11-09T08:09:37.178Z,36.90
2022-11-09T08:12:04.441Z,35.97
2022-11-09T08:14:32.777Z,34.20
2022-11-09T08:16:59.982Z,35.07
2022-11-09T08:19:27.168Z,33.83
2022-11-09T08:21:57.489Z,34.70
2022-11-09T08:24:24.738Z,32.47
2022-11-09T08:26:51.871Z,33.97
2022-11-09T08:29:19.010Z,33.13
2022-11-09T08:31:46.195Z,34.53
2022-11-09T08:34:16.589Z,32.83
2022-11-09T08:36:44.057Z,35.00
2022-11-09T08:39:11.200Z,31.33
2022-11-09T08:41:38.395Z,33.03
2022-11-09T08:44:05.501Z,31.33
2022-11-09T08:46:37.027Z,31.93
2022-11-09T08:49:07.164Z,31.20
2022-11-09T08:51:34.295Z,29.87
2022-11-09T08:54:01.891Z,31.13
2022-11-09T08:56:29.041Z,30.70
2022-11-09T08:58:56.141Z,31.30
2022-11-09T09:01:25.535Z,30.90
2022-11-09T09:03:52.780Z,29.07
2022-11-09T09:06:19.910Z,31.63
2022-11-09T09:08:47.166Z,29.50
2022-11-09T09:11:15.536Z,28.50
2022-11-09T09:13:43.694Z,29.57
2022-11-09T09:16:15.800Z,31.77
2022-11-09T09:18:43.419Z,30.67
2022-11-09T09:21:11.341Z,30.23
2022-11-09T09:23:38.616Z,30.90
2022-11-09T09:26:06.134Z,30.60
2022-11-09T09:28:33.390Z,31.13
2022-11-09T09:31:02.219Z,29.73
2022-11-09T09:33:29.528Z,30.87
2022-11-09T09:35:58.408Z,29.27
2022-11-09T09:38:27.055Z,29.73
2022-11-09T09:41:06.038Z,29.00
2022-11-09T09:43:44.898Z,29.13
2022-11-09T09:46:37.923Z,28.37
2022-11-09T09:49:12.230Z,29.57
2022-11-09T09:51:48.890Z,29.70
2022-11-09T09:54:27.109Z,30.60
2022-11-09T09:56:59.900Z,28.43
2022-11-09T09:59:41.130Z,29.47
2022-11-09T10:02:26.592Z,29.40
2022-11-09T10:04:57.866Z,27.93
2022-11-09T10:08:22.770Z,28.43
2022-11-09T10:11:17.002Z,27.97
2022-11-09T10:14:03.989Z,29.87
2022-11-09T10:16:39.022Z,27.83
2022-11-09T10:19:39.892Z,29.10
2022-11-09T10:22:39.842Z,27.70
2022-11-09T10:25:32.180Z,29.67
2022-11-09T10:28:13.550Z,30.03
2022-11-09T10:30:41.702Z,28.60
2022-11-09T10:33:11.873Z,28.63
2022-11-09T10:35:45.941Z,28.93
2022-11-09T10:38:20.893Z,28.60
2022-11-09T10:41:17.930Z,27.97
2022-11-09T10:44:03.664Z,27.30
2022-11-09T10:47:06.138Z,28.93
2022-11-09T10:50:38.952Z,28.10
2022-11-09T10:53:30.380Z,29.23
2022-11-09T10:56:21.339Z,27.20
2022-11-09T10:59:50.164Z,28.37
2022-11-09T11:02:40.800Z,27.80
2022-11-09T11:05:29.357Z,28.73
2022-11-09T11:08:24.789Z,28.67
2022-11-09T11:11:39.438Z,29.13
2022-11-09T11:14:42.017Z,28.03
2022-11-09T11:17:35.035Z,27.63
2022-11-09T11:20:31.458Z,28.90
2022-11-09T11:23:26.417Z,29.13
2022-11-09T11:26:15.444Z,28.80
2022-11-09T11:29:07.308Z,27.47
2022-11-09T11:31:53.110Z,28.83
2022-11-09T11:34:59.121Z,28.80
2022-11-09T11:38:09.977Z,29.50
2022-11-09T11:41:21.900Z,29.70
2022-11-09T11:44:14.003Z,29.77
2022-11-09T11:47:22.118Z,26.30
2022-11-09T11:50:31.803Z,28.20
2022-11-09T11:53:24.734Z,28.53
2022-11-09T11:56:19.489Z,29.70
2022-11-09T11:59:26.698Z,27.87
2022-11-09T12:02:44.211Z,27.63
2022-11-09T12:06:04.395Z,28.33
2022-11-09T12:09:14.885Z,29.00
2022-11-09T12:12:17.096Z,27.30
2022-11-09T12:15:02.712Z,27.40
2022-11-09T12:18:00.959Z,28.13
2022-11-09T12:21:18.026Z,29.77
2022-11-09T12:24:17.397Z,29.07
2022-11-09T12:27:40.486Z,28.60
2022-11-09T12:30:38.258Z,28.00
2022-11-09T12:33:43.213Z,26.73
2022-11-09T12:36:40.775Z,28.07
2022-11-09T12:40:06.843Z,27.77
2022-11-09T12:43:00.666Z,27.73
2022-11-09T12:45:49.605Z,42.87
2022-11-09T12:48:35.667Z,45.33
2022-11-09T12:51:22.662Z,43.10
2022-11-09T12:54:11.909Z,32.10
2022-11-09T12:56:59.979Z,30.87
2022-11-09T12:59:54.538Z,27.87
2022-11-09T13:02:57.417Z,28.93
2022-11-09T13:05:45.293Z,26.77
2022-11-09T13:08:32.507Z,28.00
2022-11-09T13:11:18.130Z,27.93
2022-11-09T13:14:22.311Z,27.40
2022-11-09T13:17:26.407Z,27.30
2022-11-09T13:20:53.863Z,29.13
2022-11-09T13:26:46.949Z,27.30
2022-11-09T13:29:42.229Z,27.13
2022-11-09T13:32:30.027Z,25.73
2022-11-09T13:35:41.097Z,27.90
2022-11-09T13:38:31.815Z,28.07
2022-11-09T13:41:29.819Z,29.00
2022-11-09T13:44:26.434Z,26.90
2022-11-09T13:47:22.725Z,30.00
2022-11-09T13:50:20.439Z,26.70
2022-11-09T13:53:37.804Z,27.83
2022-11-09T13:56:40.096Z,27.83
2022-11-09T13:59:28.572Z,28.83
2022-11-09T14:02:24.814Z,28.13
2022-11-09T14:05:29.254Z,27.30
2022-11-09T14:08:23.129Z,28.17
2022-11-09T14:11:40.235Z,28.47
2022-11-09T14:15:12.370Z,26.93
2022-11-09T14:18:43.172Z,28.17
2022-11-09T14:21:44.423Z,27.60
2022-11-09T14:24:35.251Z,27.23
2022-11-09T14:27:23.135Z,29.00
2022-11-09T14:30:24.571Z,28.17
2022-11-09T14:33:21.912Z,28.93
2022-11-09T14:36:11.949Z,29.33
2022-11-09T14:39:00.303Z,29.87
2022-11-09T14:41:46.169Z,29.23
2022-11-09T14:44:40.691Z,27.90
2022-11-09T14:47:33.429Z,27.10
2022-11-09T14:50:42.779Z,26.87
2022-11-09T14:53:38.139Z,27.87
2022-11-09T14:56:25.375Z,28.70
2022-11-09T14:59:21.784Z,30.37
2022-11-09T15:02:11.840Z,29.03
2022-11-09T15:05:00.837Z,29.37
2022-11-09T15:07:48.373Z,29.63
2022-11-09T15:10:35.173Z,28.33
2022-11-09T15:13:35.152Z,30.23
2022-11-09T15:16:27.388Z,29.97
2022-11-09T15:19:34.854Z,30.07
2022-11-09T15:22:55.881Z,27.30
2022-11-09T15:25:41.852Z,31.70
2022-11-09T15:28:31.375Z,30.93
2022-11-09T15:31:19.672Z,32.87
2022-11-09T15:34:23.257Z,33.60
2022-11-09T15:37:26.383Z,34.20
2022-11-09T15:40:15.487Z,37.03
2022-11-09T15:43:01.639Z,39.73
2022-11-09T15:45:47.843Z,33.77
2022-11-09T15:48:34.286Z,31.97
2022-11-09T15:51:21.241Z,32.40
2022-11-09T15:54:07.174Z,32.23
2022-11-09T15:56:53.468Z,31.43
2022-11-09T15:59:39.244Z,30.97
2022-11-09T16:02:25.189Z,32.60
2022-11-09T16:05:11.525Z,35.57
2022-11-09T16:07:57.332Z,57.17
2022-11-09T16:10:44.747Z,45.57
2022-11-09T16:13:31.090Z,45.23
2022-11-09T16:16:16.814Z,42.27
2022-11-09T16:19:02.764Z,34.43
2022-11-09T16:21:48.721Z,30.43
2022-11-09T16:24:34.651Z,32.43
2022-11-09T16:27:48.274Z,31.63
2022-11-09T16:30:28.951Z,32.27
2022-11-09T16:33:15.032Z,36.60
2022-11-09T16:36:04.171Z,33.47
2022-11-09T16:38:53.941Z,30.63
2022-11-09T16:41:42.231Z,29.93
2022-11-09T16:44:34.259Z,28.37
2022-11-09T16:47:21.407Z,26.60
2022-11-09T16:50:08.271Z,28.33
2022-11-09T16:52:54.201Z,31.87
2022-11-09T16:55:40.131Z,38.47
2022-11-09T16:58:26.021Z,38.17
2022-11-09T17:01:14.498Z,32.00
2022-11-09T17:04:03.680Z,28.97
2022-11-09T17:06:50.752Z,30.50
2022-11-09T17:09:37.374Z,26.10
2022-11-09T17:12:23.684Z,26.60
2022-11-09T17:15:09.971Z,29.40
2022-11-09T17:17:56.071Z,28.27
2022-11-09T17:20:47.065Z,30.37
2022-11-09T17:23:34.041Z,28.30
2022-11-09T17:26:21.190Z,28.87
2022-11-09T17:29:07.511Z,28.90
2022-11-09T17:31:53.832Z,28.97
2022-11-09T17:34:39.432Z,28.03
2022-11-09T17:37:25.365Z,30.87
2022-11-09T17:40:11.522Z,27.87
2022-11-09T17:42:57.498Z,29.27
2022-11-09T17:45:43.464Z,31.23
2022-11-09T17:48:29.036Z,31.13
2022-11-09T17:51:18.204Z,30.53
2022-11-09T17:54:04.800Z,30.47
2022-11-09T17:56:51.833Z,29.83
2022-11-09T17:59:37.873Z,30.40
2022-11-09T18:02:24.183Z,30.10
2022-11-09T18:05:11.453Z,30.73
2022-11-09T18:07:57.415Z,28.83
2022-11-09T18:10:45.763Z,29.53
2022-11-09T18:13:31.966Z,28.97
2022-11-09T18:16:19.764Z,27.67
2022-11-09T18:19:06.681Z,27.47
2022-11-09T18:21:52.562Z,27.70
2022-11-09T18:24:38.754Z,28.83
2022-11-09T18:27:29.907Z,28.33
2022-11-09T18:30:17.534Z,27.47
2022-11-09T18:33:03.484Z,26.60
2022-11-09T18:35:59.924Z,25.37
2022-11-09T18:38:45.884Z,26.60
2022-11-09T18:41:32.428Z,25.47
2022-11-09T18:44:18.084Z,25.23
2022-11-09T18:47:05.623Z,24.47
2022-11-09T18:49:52.710Z,25.40
2022-11-09T18:52:38.744Z,28.17
2022-11-09T18:55:24.485Z,29.10
2022-11-09T18:58:10.255Z,33.37
2022-11-09T19:01:05.074Z,34.07
2022-11-09T19:03:56.381Z,33.93
2022-11-09T19:06:46.079Z,32.63
2022-11-09T19:09:35.819Z,33.40
2022-11-09T19:12:21.818Z,28.47
2022-11-09T19:15:09.482Z,27.97
2022-11-09T19:17:55.751Z,28.17
2022-11-09T19:20:41.722Z,25.23
2022-11-09T19:23:33.918Z,27.23
2022-11-09T19:26:22.694Z,24.47
2022-11-09T19:29:16.519Z,25.30
2022-11-09T19:32:04.798Z,24.27
2022-11-09T19:34:51.832Z,26.30
2022-11-09T19:37:37.961Z,27.30
2022-11-09T19:40:24.577Z,38.20
2022-11-09T19:43:11.896Z,44.83
2022-11-09T19:45:58.078Z,42.17
2022-11-09T19:48:48.328Z,39.03
2022-11-09T19:51:35.032Z,38.27
2022-11-09T19:54:20.767Z,35.83
2022-11-09T19:57:09.133Z,34.87
2022-11-09T19:59:56.964Z,31.07
2022-11-09T20:02:42.684Z,30.17
2022-11-09T20:05:31.488Z,30.27
2022-11-09T20:08:17.852Z,29.40
2022-11-09T20:11:12.805Z,27.53
2022-11-09T20:13:58.310Z,28.30
2022-11-09T20:16:45.194Z,31.80
2022-11-09T20:19:31.175Z,32.20
2022-11-09T20:22:17.265Z,30.40
2022-11-09T20:25:04.836Z,30.47
2022-11-09T20:27:50.441Z,30.53
2022-11-09T20:30:41.015Z,62.93
2022-11-09T20:33:26.928Z,42.20
2022-11-09T20:36:14.828Z,32.67
2022-11-09T20:39:01.748Z,31.50
2022-11-09T20:41:47.554Z,34.20
2022-11-09T20:44:33.565Z,29.13
2022-11-09T20:47:35.527Z,23.43
2022-11-09T20:50:24.940Z,20.67
2022-11-09T20:53:11.654Z,21.73
2022-11-09T20:55:57.744Z,23.37
2022-11-09T20:58:43.787Z,23.80
2022-11-09T21:01:30.122Z,24.37
2022-11-09T21:04:16.505Z,23.03
2022-11-09T21:07:02.603Z,25.03
2022-11-09T21:09:48.482Z,24.10
2022-11-09T21:12:34.413Z,22.73
2022-11-09T21:15:20.337Z,22.40
2022-11-09T21:18:07.865Z,24.20
2022-11-09T21:20:53.701Z,23.37
2022-11-09T21:23:59.403Z,25.57
2022-11-09T21:27:03.896Z,26.10
2022-11-09T21:29:52.563Z,25.13
2022-11-09T21:32:40.328Z,27.33
2022-11-09T21:35:26.130Z,26.93
2022-11-09T21:38:11.879Z,28.13
2022-11-09T21:41:06.813Z,28.93
2022-11-09T21:43:57.401Z,30.90
2022-11-09T21:46:44.361Z,29.43
2022-11-09T21:49:30.432Z,30.53
2022-11-09T21:52:16.393Z,28.87
2022-11-09T21:55:02.322Z,29.00
2022-11-09T21:57:51.402Z,28.13
2022-11-09T22:00:37.011Z,27.17
2022-11-09T22:03:22.995Z,26.57
2022-11-09T22:06:09.788Z,26.17
2022-11-09T22:08:55.651Z,25.13
2022-11-09T22:12:00.792Z,24.23
2022-11-09T22:15:05.135Z,22.53
2022-11-09T22:17:54.172Z,24.27
2022-11-09T22:20:55.061Z,22.33
2022-11-09T22:23:40.785Z,23.40
2022-11-09T22:26:28.918Z,22.20
2022-11-09T22:29:14.563Z,21.13
2022-11-09T22:32:00.376Z,20.73
2022-11-09T22:34:46.528Z,21.67
2022-11-09T22:37:32.537Z,21.20
2022-11-09T22:40:18.868Z,19.97
2022-11-09T22:43:04.672Z,19.50
2022-11-09T22:45:50.611Z,19.80
2022-11-09T22:48:37.949Z,20.60
2022-11-09T22:51:24.399Z,21.37
2022-11-09T22:54:10.464Z,20.77
2022-11-09T22:56:56.160Z,19.83
2022-11-09T22:59:42.023Z,21.17
2022-11-09T23:02:29.094Z,21.33
2022-11-09T23:05:15.317Z,21.63
2022-11-09T23:08:01.115Z,20.50
2022-11-09T23:10:55.664Z,19.37
2022-11-09T23:13:42.579Z,19.53
2022-11-09T23:16:28.541Z,19.60
2022-11-09T23:19:14.467Z,19.80
2022-11-09T23:22:00.321Z,18.93
2022-11-09T23:25:04.719Z,19.73
2022-11-09T23:27:52.185Z,18.67
2022-11-09T23:30:38.681Z,20.70
2022-11-09T23:33:24.728Z,19.83
2022-11-09T23:36:11.139Z,20.53
2022-11-09T23:38:57.036Z,20.47
2022-11-09T23:41:42.776Z,20.10
2022-11-09T23:44:28.388Z,20.07
2022-11-09T23:47:14.205Z,19.63
2022-11-09T23:49:59.967Z,20.17
2022-11-09T23:52:45.958Z,20.30
2022-11-09T23:55:32.072Z,21.43
2022-11-09T23:58:18.247Z,21.90
